createdAt,value
2018-09-01T00:00:27.458Z,23.87
2018-09-01T00:02:55.820Z,21.77
2018-09-01T00:05:24.271Z,21.10
2018-09-01T00:07:52.587Z,21.27
2018-09-01T00:10:20.937Z,18.90
2018-09-01T00:12:49.251Z,20.37
2018-09-01T00:15:17.611Z,21.50
2018-09-01T00:17:45.933Z,21.73
2018-09-01T00:20:14.344Z,16.17
2018-09-01T00:22:42.704Z,21.60
2018-09-01T00:25:11.105Z,27.43
2018-09-01T00:27:39.431Z,21.03
2018-09-01T00:30:07.946Z,20.37
2018-09-01T00:32:36.318Z,24.60
2018-09-01T00:35:04.823Z,25.60
2018-09-01T00:37:38.634Z,26.13
2018-09-01T00:40:07.115Z,29.03
2018-09-01T00:42:35.449Z,26.30
2018-09-01T00:45:03.881Z,29.23
2018-09-01T00:47:32.203Z,33.63
2018-09-01T00:50:00.564Z,34.73
2018-09-01T00:52:28.875Z,29.33
2018-09-01T00:54:57.247Z,36.13
2018-09-01T00:57:25.633Z,50.20
2018-09-01T00:59:53.994Z,41.30
2018-09-01T01:02:22.340Z,39.93
2018-09-01T01:04:50.792Z,40.67
2018-09-01T01:07:19.197Z,42.30
2018-09-01T01:09:47.517Z,41.13
2018-09-01T01:12:15.971Z,37.97
2018-09-01T01:14:44.368Z,45.30
2018-09-01T01:17:12.868Z,41.87
2018-09-01T01:19:41.636Z,31.90
2018-09-01T01:22:10.017Z,42.23
2018-09-01T01:24:38.384Z,34.53
2018-09-01T01:27:06.761Z,31.27
2018-09-01T01:29:35.112Z,36.00
2018-09-01T01:32:03.473Z,29.63
2018-09-01T01:34:31.844Z,28.40
2018-09-01T01:37:00.203Z,27.90
2018-09-01T01:39:28.598Z,24.90
2018-09-01T01:41:56.974Z,25.50
2018-09-01T01:44:25.395Z,21.10
2018-09-01T01:46:53.724Z,23.00
2018-09-01T01:49:22.085Z,22.47
2018-09-01T01:51:50.457Z,23.37
2018-09-01T01:54:18.828Z,20.80
2018-09-01T01:56:47.212Z,20.70
2018-09-01T01:59:15.568Z,22.87
2018-09-01T02:01:43.900Z,21.00
2018-09-01T02:04:12.239Z,20.37
2018-09-01T02:06:40.612Z,21.50
2018-09-01T02:09:08.960Z,24.87
2018-09-01T02:11:37.325Z,19.80
2018-09-01T02:14:06.034Z,20.50
2018-09-01T02:16:34.438Z,18.83
2018-09-01T02:19:02.805Z,17.70
2018-09-01T02:21:31.150Z,19.27
2018-09-01T02:23:59.495Z,15.43
2018-09-01T02:26:27.871Z,13.03
2018-09-01T02:28:56.240Z,15.73
2018-09-01T02:31:24.635Z,17.33
2018-09-01T02:33:52.992Z,13.80
2018-09-01T02:36:21.436Z,13.37
2018-09-01T02:38:49.806Z,13.53
2018-09-01T02:41:18.204Z,11.53
2018-09-01T02:43:46.606Z,11.67
2018-09-01T02:46:14.981Z,11.83
2018-09-01T02:48:43.336Z,8.67
2018-09-01T02:51:11.687Z,7.73
2018-09-01T02:53:40.033Z,10.67
2018-09-01T02:56:08.452Z,10.50
2018-09-01T02:58:36.881Z,6.70
2018-09-01T03:01:10.845Z,10.60
2018-09-01T03:03:39.202Z,9.20
2018-09-01T03:06:07.305Z,11.53
2018-09-01T03:08:35.665Z,8.30
2018-09-01T03:11:04.033Z,7.80
2018-09-01T03:13:32.368Z,6.30
2018-09-01T03:16:00.716Z,5.70
2018-09-01T03:18:29.053Z,7.20
2018-09-01T03:20:57.416Z,6.17
2018-09-01T03:23:25.780Z,9.27
2018-09-01T03:25:54.250Z,7.37
2018-09-01T03:28:22.628Z,7.67
2018-09-01T03:30:51.005Z,9.27
2018-09-01T03:33:19.375Z,7.10
2018-09-01T03:35:47.708Z,7.07
2018-09-01T03:38:16.093Z,9.33
2018-09-01T03:40:44.479Z,7.67
2018-09-01T03:43:12.842Z,6.10
2018-09-01T03:45:41.219Z,8.97
2018-09-01T03:48:09.560Z,6.30
2018-09-01T03:50:37.963Z,6.73
2018-09-01T03:53:06.335Z,8.30
2018-09-01T03:55:34.704Z,8.90
2018-09-01T03:58:03.228Z,6.73
2018-09-01T04:00:31.608Z,9.53
2018-09-01T04:03:00.021Z,9.03
2018-09-01T04:05:28.459Z,7.10
2018-09-01T04:07:56.785Z,7.17
2018-09-01T04:10:25.261Z,7.10
2018-09-01T04:12:53.623Z,5.70
2018-09-01T04:15:22.043Z,9.60
2018-09-01T04:17:50.385Z,9.40
2018-09-01T04:20:18.757Z,7.23
2018-09-01T04:22:47.064Z,7.97
2018-09-01T04:25:15.603Z,13.50
2018-09-01T04:27:43.964Z,8.47
2018-09-01T04:30:12.313Z,6.70
2018-09-01T04:32:40.633Z,6.83
2018-09-01T04:35:09.006Z,5.63
2018-09-01T04:37:37.371Z,5.33
2018-09-01T04:40:05.917Z,7.40
2018-09-01T04:42:34.315Z,5.67
2018-09-01T04:45:02.707Z,6.60
2018-09-01T04:47:31.063Z,8.27
2018-09-01T04:49:59.443Z,5.17
2018-09-01T04:52:27.817Z,10.03
2018-09-01T04:54:56.159Z,8.80
2018-09-01T04:57:24.530Z,5.93
2018-09-01T04:59:52.883Z,7.10
2018-09-01T05:02:21.214Z,5.47
2018-09-01T05:04:49.642Z,8.00
2018-09-01T05:07:18.014Z,5.63
2018-09-01T05:09:46.346Z,6.10
2018-09-01T05:12:14.710Z,7.23
2018-09-01T05:14:43.085Z,9.63
2018-09-01T05:17:11.499Z,20.83
2018-09-01T05:19:39.895Z,6.00
2018-09-01T05:22:08.264Z,7.07
2018-09-01T05:24:36.627Z,5.47
2018-09-01T05:27:05.080Z,9.43
2018-09-01T05:29:33.512Z,6.80
2018-09-01T05:32:01.846Z,8.00
2018-09-01T05:34:30.360Z,7.77
2018-09-01T05:36:58.742Z,6.50
2018-09-01T05:39:27.090Z,8.83
2018-09-01T05:41:55.465Z,7.10
2018-09-01T05:44:23.838Z,6.10
2018-09-01T05:46:52.159Z,5.93
2018-09-01T05:49:20.506Z,6.33
2018-09-01T05:51:48.859Z,8.10
2018-09-01T05:54:17.258Z,3.30
2018-09-01T05:56:45.698Z,4.40
2018-09-01T05:59:14.062Z,4.43
2018-09-01T06:01:42.519Z,4.80
2018-09-01T06:04:10.901Z,5.10
2018-09-01T06:06:39.377Z,9.90
2018-09-01T06:09:09.356Z,8.20
2018-09-01T06:11:37.723Z,3.20
2018-09-01T06:14:06.653Z,3.60
2018-09-01T06:16:35.063Z,7.23
2018-09-01T06:19:03.649Z,7.25
2018-09-01T06:21:32.024Z,7.90
2018-09-01T06:24:00.453Z,5.57
2018-09-01T06:26:28.816Z,5.43
2018-09-01T06:29:02.520Z,6.13
2018-09-01T06:31:30.918Z,8.87
2018-09-01T06:33:59.272Z,10.37
2018-09-01T06:36:27.595Z,6.73
2018-09-01T06:38:55.965Z,7.73
2018-09-01T06:41:24.327Z,3.60
2018-09-01T06:43:52.675Z,9.33
2018-09-01T06:46:21.045Z,3.80
2018-09-01T06:48:49.804Z,3.80
2018-09-01T06:51:18.142Z,6.33
2018-09-01T06:53:46.561Z,12.03
2018-09-01T06:56:14.988Z,3.83
2018-09-01T06:58:43.430Z,4.90
2018-09-01T07:01:11.761Z,7.00
2018-09-01T07:03:40.172Z,7.80
2018-09-01T07:06:08.504Z,8.60
2018-09-01T07:08:36.930Z,6.23
2018-09-01T07:11:05.261Z,4.63
2018-09-01T07:13:33.595Z,4.30
2018-09-01T07:16:01.945Z,5.00
2018-09-01T07:18:30.296Z,5.10
2018-09-01T07:20:58.684Z,4.83
2018-09-01T07:23:27.032Z,7.50
2018-09-01T07:25:55.436Z,5.37
2018-09-01T07:28:23.807Z,5.20
2018-09-01T07:30:52.545Z,3.90
2018-09-01T07:33:20.784Z,7.60
2018-09-01T07:35:49.209Z,5.20
2018-09-01T07:38:17.591Z,8.43
2018-09-01T07:40:46.107Z,3.00
2018-09-01T07:43:14.502Z,9.13
2018-09-01T07:45:42.971Z,4.47
2018-09-01T07:48:11.364Z,8.67
2018-09-01T07:50:39.700Z,4.63
2018-09-01T07:53:08.065Z,4.23
2018-09-01T07:55:36.472Z,4.63
2018-09-01T07:58:04.878Z,8.83
2018-09-01T08:00:33.268Z,14.83
2018-09-01T08:03:01.619Z,9.57
2018-09-01T08:05:29.995Z,8.50
2018-09-01T08:07:58.334Z,8.67
2018-09-01T08:10:26.985Z,5.73
2018-09-01T08:12:55.354Z,6.80
2018-09-01T08:15:23.776Z,4.17
2018-09-01T08:17:52.284Z,4.37
2018-09-01T08:20:20.788Z,9.83
2018-09-01T08:22:49.376Z,3.13
2018-09-01T08:25:17.827Z,9.40
2018-09-01T08:27:46.277Z,11.77
2018-09-01T08:30:14.645Z,6.93
2018-09-01T08:32:43.000Z,4.33
2018-09-01T08:35:11.412Z,5.80
2018-09-01T08:37:40.824Z,7.00
2018-09-01T08:40:09.194Z,8.07
2018-09-01T08:42:37.550Z,11.13
2018-09-01T08:45:06.088Z,5.03
2018-09-01T08:47:34.440Z,4.73
2018-09-01T08:50:02.890Z,8.80
2018-09-01T08:52:31.234Z,4.13
2018-09-01T08:54:59.575Z,7.13
2018-09-01T08:57:27.927Z,4.23
2018-09-01T08:59:56.272Z,5.03
2018-09-01T09:02:24.766Z,7.53
2018-09-01T09:04:53.104Z,3.57
2018-09-01T09:07:21.433Z,8.10
2018-09-01T09:09:50.003Z,6.03
2018-09-01T09:12:18.382Z,5.87
2018-09-01T09:14:46.776Z,5.83
2018-09-01T09:17:15.264Z,5.20
2018-09-01T09:19:43.602Z,4.57
2018-09-01T09:22:12.076Z,5.40
2018-09-01T09:24:40.408Z,3.83
2018-09-01T09:27:08.799Z,12.87
2018-09-01T09:29:37.114Z,5.97
2018-09-01T09:32:05.504Z,3.77
2018-09-01T09:34:33.963Z,6.83
2018-09-01T09:37:02.246Z,8.00
2018-09-01T09:39:30.571Z,11.80
2018-09-01T09:41:58.957Z,5.13
2018-09-01T09:44:27.271Z,5.10
2018-09-01T09:46:55.617Z,8.90
2018-09-01T09:49:23.995Z,9.17
2018-09-01T09:51:52.452Z,4.20
2018-09-01T09:54:20.831Z,8.27
2018-09-01T09:56:49.141Z,7.03
2018-09-01T09:59:17.554Z,6.00
2018-09-01T10:01:45.938Z,7.20
2018-09-01T10:04:14.327Z,5.70
2018-09-01T10:06:42.689Z,6.60
2018-09-01T10:09:15.521Z,6.95
2018-09-01T10:11:44.403Z,7.27
2018-09-01T10:14:13.213Z,8.40
2018-09-01T10:16:42.160Z,7.30
2018-09-01T10:19:10.568Z,7.87
2018-09-01T10:21:39.089Z,6.90
2018-09-01T10:24:07.689Z,5.40
2018-09-01T10:26:36.079Z,14.13
2018-09-01T10:29:04.402Z,8.90
2018-09-01T10:31:32.751Z,17.10
2018-09-01T10:34:01.115Z,11.23
2018-09-01T10:36:29.484Z,12.90
2018-09-01T10:38:57.835Z,15.10
2018-09-01T10:41:26.268Z,8.37
2018-09-01T10:43:54.670Z,9.40
2018-09-01T10:46:23.105Z,6.13
2018-09-01T10:48:51.526Z,5.17
2018-09-01T10:51:19.872Z,8.10
2018-09-01T10:53:48.229Z,9.57
2018-09-01T10:56:16.670Z,5.27
2018-09-01T10:58:45.059Z,6.73
2018-09-01T11:01:13.422Z,10.03
2018-09-01T11:03:41.721Z,2.83
2018-09-01T11:06:10.117Z,3.83
2018-09-01T11:08:38.502Z,5.50
2018-09-01T11:11:07.177Z,4.50
2018-09-01T11:13:35.561Z,3.87
2018-09-01T11:16:03.972Z,5.07
2018-09-01T11:18:32.316Z,3.80
2018-09-01T11:21:00.770Z,3.77
2018-09-01T11:23:29.071Z,6.93
2018-09-01T11:25:57.493Z,3.53
2018-09-01T11:28:25.898Z,3.50
2018-09-01T11:30:54.306Z,3.53
2018-09-01T11:33:22.656Z,3.10
2018-09-01T11:35:51.034Z,8.17
2018-09-01T11:38:19.413Z,3.07
2018-09-01T11:40:47.744Z,3.77
2018-09-01T11:43:16.187Z,2.90
2018-09-01T11:45:44.465Z,4.93
2018-09-01T11:48:12.898Z,3.60
2018-09-01T11:50:41.225Z,7.77
2018-09-01T11:53:09.666Z,2.63
2018-09-01T11:55:37.938Z,9.33
2018-09-01T11:58:06.319Z,8.93
2018-09-01T12:00:34.679Z,2.40
2018-09-01T12:03:03.026Z,5.00
2018-09-01T12:05:31.387Z,3.57
2018-09-01T12:07:59.751Z,5.13
2018-09-01T12:10:28.211Z,2.53
2018-09-01T12:12:56.604Z,5.00
2018-09-01T12:15:24.971Z,10.50
2018-09-01T12:17:53.300Z,5.97
2018-09-01T12:20:21.675Z,3.43
2018-09-01T12:22:50.041Z,7.70
2018-09-01T12:25:18.401Z,5.20
2018-09-01T12:27:46.741Z,3.07
2018-09-01T12:30:15.158Z,2.93
2018-09-01T12:32:43.511Z,12.83
2018-09-01T12:35:11.923Z,3.20
2018-09-01T12:37:40.262Z,3.83
2018-09-01T12:40:08.629Z,5.43
2018-09-01T12:42:36.983Z,5.23
2018-09-01T12:45:05.928Z,4.17
2018-09-01T12:50:02.008Z,4.40
2018-09-01T12:52:31.399Z,2.97
2018-09-01T12:54:59.803Z,4.33
2018-09-01T13:02:24.959Z,2.60
2018-09-01T13:04:53.382Z,3.90
2018-09-01T13:07:21.795Z,3.37
2018-09-01T13:09:50.155Z,4.67
2018-09-01T13:12:18.504Z,2.77
2018-09-01T13:14:46.882Z,3.97
2018-09-01T13:17:15.189Z,3.97
2018-09-01T13:19:44.175Z,4.10
2018-09-01T13:22:12.489Z,2.30
2018-09-01T13:24:40.881Z,2.60
2018-09-01T13:27:09.248Z,3.07
2018-09-01T13:29:37.615Z,4.83
2018-09-01T13:32:06.159Z,5.83
2018-09-01T13:34:34.581Z,3.80
2018-09-01T13:37:02.973Z,4.83
2018-09-01T13:39:31.338Z,4.13
2018-09-01T13:41:59.676Z,1.60
2018-09-01T13:44:28.021Z,2.70
2018-09-01T13:46:56.351Z,1.73
2018-09-01T13:49:24.732Z,2.00
2018-09-01T13:51:53.133Z,2.00
2018-09-01T13:54:21.490Z,2.97
2018-09-01T13:56:49.887Z,1.87
2018-09-01T13:59:18.251Z,2.30
2018-09-01T14:01:46.576Z,3.50
2018-09-01T14:04:15.033Z,3.20
2018-09-01T14:06:43.385Z,7.87
2018-09-01T14:09:11.862Z,2.03
2018-09-01T14:11:40.333Z,5.00
2018-09-01T14:14:08.738Z,3.60
2018-09-01T14:16:37.164Z,5.93
2018-09-01T14:19:05.844Z,2.20
2018-09-01T14:21:34.190Z,4.77
2018-09-01T14:24:02.524Z,2.07
2018-09-01T14:26:30.906Z,2.37
2018-09-01T14:28:59.268Z,2.60
2018-09-01T14:31:27.608Z,3.00
2018-09-01T14:33:56.000Z,4.30
2018-09-01T14:36:24.440Z,2.83
2018-09-01T14:38:52.753Z,3.97
2018-09-01T14:41:21.221Z,4.87
2018-09-01T14:43:49.654Z,3.13
2018-09-01T14:46:18.080Z,4.83
2018-09-01T14:48:46.419Z,1.80
2018-09-01T14:51:14.796Z,2.10
2018-09-01T14:53:43.139Z,3.00
2018-09-01T14:56:11.510Z,2.07
2018-09-01T14:58:39.847Z,3.23
2018-09-01T15:01:08.219Z,1.67
2018-09-01T15:03:36.596Z,2.50
2018-09-01T15:06:05.092Z,2.23
2018-09-01T15:08:33.437Z,6.33
2018-09-01T15:11:01.810Z,1.70
2018-09-01T15:13:30.246Z,36.70
2018-09-01T15:15:58.686Z,27.97
2018-09-01T15:18:27.043Z,2.87
2018-09-01T15:20:55.428Z,4.90
2018-09-01T15:23:23.897Z,3.60
2018-09-01T15:25:52.281Z,1.70
2018-09-01T15:28:20.703Z,7.20
2018-09-01T15:30:49.065Z,3.80
2018-09-01T15:33:17.408Z,7.27
2018-09-01T15:35:45.777Z,2.10
2018-09-01T15:38:14.142Z,2.40
2018-09-01T15:40:42.536Z,1.87
2018-09-01T15:43:10.919Z,1.67
2018-09-01T15:45:39.243Z,1.90
2018-09-01T15:48:07.601Z,6.97
2018-09-01T15:50:36.050Z,2.40
2018-09-01T15:53:04.364Z,1.77
2018-09-01T15:55:32.773Z,2.13
2018-09-01T15:58:01.135Z,2.57
2018-09-01T16:00:29.568Z,3.37
2018-09-01T16:02:57.991Z,3.50
2018-09-01T16:05:26.452Z,3.03
2018-09-01T16:07:54.820Z,2.23
2018-09-01T16:10:23.149Z,3.57
2018-09-01T16:12:51.552Z,5.50
2018-09-01T16:15:20.037Z,4.33
2018-09-01T16:17:48.614Z,2.93
2018-09-01T16:20:17.040Z,2.73
2018-09-01T16:22:45.388Z,12.67
2018-09-01T16:25:13.800Z,2.97
2018-09-01T16:27:42.242Z,2.33
2018-09-01T16:30:10.645Z,3.80
2018-09-01T16:32:39.003Z,2.73
2018-09-01T16:35:07.384Z,9.10
2018-09-01T16:37:35.908Z,4.87
2018-09-01T16:40:04.764Z,3.93
2018-09-01T16:42:33.133Z,5.27
2018-09-01T16:45:01.487Z,2.80
2018-09-01T16:47:29.875Z,2.40
2018-09-01T16:49:58.232Z,3.43
2018-09-01T16:52:26.950Z,2.77
2018-09-01T16:54:55.271Z,2.67
2018-09-01T16:57:23.732Z,4.90
2018-09-01T16:59:52.168Z,2.47
2018-09-01T17:02:20.857Z,15.33
2018-09-01T17:04:49.655Z,3.20
2018-09-01T17:07:21.266Z,91.70
2018-09-01T17:09:51.310Z,9.83
2018-09-01T17:12:21.684Z,21.53
2018-09-01T17:14:52.446Z,3.00
2018-09-01T17:17:23.244Z,4.00
2018-09-01T17:19:51.808Z,2.77
2018-09-01T17:22:26.309Z,1.90
2018-09-01T17:24:54.663Z,6.63
2018-09-01T17:27:23.076Z,3.33
2018-09-01T17:29:51.481Z,5.47
2018-09-01T17:32:19.891Z,1.60
2018-09-01T17:34:48.692Z,6.10
2018-09-01T17:37:17.077Z,2.93
2018-09-01T17:39:45.428Z,3.00
2018-09-01T17:42:13.809Z,2.30
2018-09-01T17:44:42.228Z,4.23
2018-09-01T17:47:10.612Z,5.33
2018-09-01T17:49:39.031Z,2.90
2018-09-01T17:52:07.348Z,3.53
2018-09-01T17:54:35.965Z,6.47
2018-09-01T17:57:04.452Z,3.30
2018-09-01T17:59:32.820Z,3.37
2018-09-01T18:02:01.364Z,5.17
2018-09-01T18:04:29.779Z,4.93
2018-09-01T18:06:58.229Z,6.43
2018-09-01T18:09:26.629Z,6.40
2018-09-01T18:11:55.093Z,7.00
2018-09-01T18:14:23.494Z,4.57
2018-09-01T18:16:51.900Z,6.20
2018-09-01T18:19:20.427Z,10.90
2018-09-01T18:21:48.794Z,9.77
2018-09-01T18:24:17.179Z,5.40
2018-09-01T18:26:45.579Z,5.83
2018-09-01T18:29:13.953Z,9.90
2018-09-01T18:31:42.351Z,4.23
2018-09-01T18:34:10.720Z,6.80
2018-09-01T18:36:39.157Z,7.30
2018-09-01T18:39:08.932Z,5.00
2018-09-01T18:41:37.396Z,5.50
2018-09-01T18:44:05.781Z,3.70
2018-09-01T18:46:34.197Z,3.53
2018-09-01T18:49:02.929Z,4.00
2018-09-01T18:51:31.701Z,5.73
2018-09-01T18:54:00.091Z,4.53
2018-09-01T18:56:28.508Z,3.67
2018-09-01T18:58:56.939Z,3.50
2018-09-01T19:01:25.325Z,8.80
2018-09-01T19:03:53.689Z,4.23
2018-09-01T19:06:22.144Z,4.97
2018-09-01T19:08:50.546Z,7.93
2018-09-01T19:11:18.916Z,5.73
2018-09-01T19:13:47.336Z,8.37
2018-09-01T19:16:15.639Z,8.07
2018-09-01T19:18:44.047Z,6.60
2018-09-01T19:21:12.537Z,10.13
2018-09-01T19:23:40.886Z,4.33
2018-09-01T19:26:09.304Z,10.30
2018-09-01T19:28:37.759Z,11.70
2018-09-01T19:31:06.178Z,7.80
2018-09-01T19:33:34.592Z,7.10
2018-09-01T19:36:02.968Z,3.50
2018-09-01T19:38:31.365Z,4.30
2018-09-01T19:40:59.922Z,3.23
2018-09-01T19:43:28.297Z,2.37
2018-09-01T19:45:56.837Z,5.63
2018-09-01T19:48:25.282Z,6.73
2018-09-01T19:50:54.463Z,17.43
2018-09-01T19:53:23.105Z,7.60
2018-09-01T19:55:52.214Z,3.53
2018-09-01T19:58:20.988Z,11.53
2018-09-01T20:00:49.841Z,7.73
2018-09-01T20:03:18.322Z,5.17
2018-09-01T20:05:46.728Z,7.90
2018-09-01T20:08:15.224Z,9.67
2018-09-01T20:10:43.778Z,2.87
2018-09-01T20:13:12.467Z,2.30
2018-09-01T20:15:41.252Z,2.77
2018-09-01T20:18:09.984Z,4.10
2018-09-01T20:20:38.462Z,12.73
2018-09-01T20:23:07.204Z,7.27
2018-09-01T20:25:35.574Z,5.20
2018-09-01T20:28:04.004Z,5.90
2018-09-01T20:30:32.589Z,3.33
2018-09-01T20:33:01.441Z,6.40
2018-09-01T20:35:35.130Z,3.03
2018-09-01T20:38:03.512Z,4.13
2018-09-01T20:40:32.244Z,3.80
2018-09-01T20:43:00.889Z,3.20
2018-09-01T20:45:29.440Z,5.40
2018-09-01T20:47:57.866Z,4.00
2018-09-01T20:50:26.231Z,8.60
2018-09-01T20:52:54.583Z,6.50
2018-09-01T20:55:23.057Z,12.60
2018-09-01T20:57:51.612Z,6.43
2018-09-01T21:00:20.129Z,4.17
2018-09-01T21:02:48.888Z,10.07
2018-09-01T21:05:17.258Z,4.60
2018-09-01T21:07:45.674Z,6.03
2018-09-01T21:10:14.093Z,13.87
2018-09-01T21:12:42.583Z,6.63
2018-09-01T21:15:11.200Z,3.90
2018-09-01T21:17:39.622Z,3.77
2018-09-01T21:20:08.184Z,7.93
2018-09-01T21:22:36.553Z,7.53
2018-09-01T21:25:05.131Z,3.23
2018-09-01T21:27:33.586Z,2.90
2018-09-01T21:30:02.249Z,6.13
2018-09-01T21:32:30.817Z,4.30
2018-09-01T21:34:59.297Z,3.30
2018-09-01T21:37:27.800Z,7.60
2018-09-01T21:39:56.204Z,4.07
2018-09-01T21:42:24.558Z,3.07
2018-09-01T21:44:53.133Z,2.80
2018-09-01T21:47:21.851Z,2.83
2018-09-01T21:49:50.480Z,6.33
2018-09-01T21:52:18.955Z,3.00
2018-09-01T21:54:47.406Z,2.27
2018-09-01T21:57:15.763Z,3.10
2018-09-01T21:59:44.180Z,7.07
2018-09-01T22:02:18.305Z,4.60
2018-09-01T22:04:52.130Z,2.80
2018-09-01T22:07:21.732Z,3.90
2018-09-01T22:09:51.659Z,2.50
2018-09-01T22:12:22.799Z,3.67
2018-09-01T22:14:54.293Z,6.23
2018-09-01T22:17:24.071Z,7.07
2018-09-01T22:19:54.677Z,3.20
2018-09-01T22:22:29.363Z,4.40
2018-09-01T22:24:58.111Z,3.60
2018-09-01T22:27:26.483Z,5.23
2018-09-01T22:29:54.900Z,6.90
2018-09-01T22:32:31.547Z,8.10
2018-09-01T22:35:02.441Z,4.13
2018-09-01T22:37:31.934Z,5.60
2018-09-01T22:40:02.577Z,3.20
2018-09-01T22:42:33.792Z,4.20
2018-09-01T22:45:04.870Z,3.10
2018-09-01T22:47:42.296Z,3.60
2018-09-01T22:50:13.099Z,3.70
2018-09-01T22:52:44.029Z,4.23
2018-09-01T22:55:12.996Z,3.40
2018-09-01T22:57:41.394Z,3.70
2018-09-01T23:00:09.924Z,3.53
2018-09-01T23:02:38.277Z,4.83
2018-09-01T23:05:06.648Z,5.77
2018-09-01T23:07:35.024Z,6.35
2018-09-01T23:10:03.420Z,3.30
2018-09-01T23:12:31.798Z,4.80
2018-09-01T23:15:00.224Z,8.53
2018-09-01T23:17:28.555Z,3.30
2018-09-01T23:19:56.948Z,3.90
2018-09-01T23:22:25.223Z,4.93
2018-09-01T23:24:53.561Z,4.53
2018-09-01T23:27:21.928Z,3.37
2018-09-01T23:29:50.281Z,3.20
2018-09-01T23:32:18.626Z,7.20
2018-09-01T23:34:47.053Z,5.00
2018-09-01T23:37:15.388Z,3.63
2018-09-01T23:39:43.721Z,3.47
2018-09-01T23:42:12.134Z,4.17
2018-09-01T23:44:40.493Z,2.83
2018-09-01T23:47:08.860Z,4.90
2018-09-01T23:49:37.181Z,5.00
2018-09-01T23:52:05.542Z,5.30
2018-09-01T23:54:33.913Z,3.83
2018-09-01T23:57:02.288Z,3.73
2018-09-01T23:59:30.603Z,3.30
